Time;durP1;ratioP1;P1;durP2;ratioP2;P2;SDS_P1;SDS_P2;PMS_P1;PMS_P2;Temp;Humidity;BMP_temperature;BMP_pressure;BME280_temperature;BME280_humidity;BME280_pressure;Samples;Min_cycle;Max_cycle;Signal;HPM_P1;HPM_P2
2022/12/09 00:01:07;;;;;;;3.72;2.55;;;22.20;42.80;;;20.50;47.25;94831.84;4972884;28;20503;-62
2022/12/09 00:03:33;;;;;;;3.25;2.50;;;22.20;42.80;;;20.47;47.85;94829.75;4956862;28;20022;-61
2022/12/09 00:05:59;;;;;;;3.88;2.72;;;22.30;42.80;;;20.49;47.66;94824.91;4973081;28;20184;-61
2022/12/09 00:08:25;;;;;;;3.47;2.95;;;22.20;42.70;;;20.47;48.03;94835.09;4973180;28;20506;-61
2022/12/09 00:10:50;;;;;;;3.25;2.47;;;22.20;42.80;;;20.48;47.22;94842.81;4980965;28;20073;-62
2022/12/09 00:13:16;;;;;;;4.00;2.53;;;22.20;42.80;;;20.48;47.27;94832.13;4976538;28;20425;-62
2022/12/09 00:15:42;;;;;;;3.90;2.80;;;22.20;42.80;;;20.48;47.39;94821.44;4973178;28;20540;-62
2022/12/09 00:18:08;;;;;;;4.03;2.47;;;22.20;42.90;;;20.48;47.15;94815.31;4990316;28;20415;-61
2022/12/09 00:20:34;;;;;;;4.18;2.63;;;22.20;42.70;;;20.47;47.71;94819.06;4988717;28;20106;-61
2022/12/09 00:23:00;;;;;;;4.00;2.60;;;22.20;42.80;;;20.47;47.29;94824.41;4990407;28;20134;-62
2022/12/09 00:25:26;;;;;;;4.50;2.78;;;22.20;42.70;;;20.48;47.11;94815.31;4970614;28;20424;-61
2022/12/09 00:27:51;;;;;;;3.60;2.67;;;22.20;42.80;;;20.46;47.50;94823.59;4969386;28;20522;-61
2022/12/09 00:30:17;;;;;;;3.15;2.40;;;22.20;42.80;;;20.47;47.74;94819.06;4970610;28;20565;-61
2022/12/09 00:32:43;;;;;;;4.75;2.83;;;22.20;42.80;;;20.47;48.30;94808.38;4970910;28;20031;-61
2022/12/09 00:35:08;;;;;;;3.42;2.75;;;22.20;42.80;;;20.47;47.76;94813.72;4970784;28;20039;-61
2022/12/09 00:37:34;;;;;;;3.28;2.47;;;22.20;42.80;;;20.46;48.06;94812.91;4970444;28;20101;-62
2022/12/09 00:40:00;;;;;;;3.67;2.40;;;22.20;42.80;;;20.47;47.44;94808.38;4970201;28;20051;-61
2022/12/09 00:42:26;;;;;;;4.03;2.90;;;22.20;42.90;;;20.47;47.19;94797.69;4959850;28;20066;-61
2022/12/09 00:44:51;;;;;;;3.38;2.55;;;22.20;42.80;;;20.47;47.81;94792.34;4970604;28;20113;-61
2022/12/09 00:47:17;;;;;;;3.28;2.70;;;22.20;42.90;;;20.46;47.93;94786.22;4970421;28;20035;-61
2022/12/09 00:49:43;;;;;;;3.40;2.42;;;22.20;42.80;;;20.46;47.27;94778.19;4970242;28;20059;-61
2022/12/09 00:52:09;;;;;;;3.97;2.42;;;22.20;42.80;;;20.46;47.27;94783.53;4970561;28;20073;-61
2022/12/09 00:54:34;;;;;;;3.50;2.80;;;22.30;42.70;;;20.46;48.18;94786.22;4970866;28;20069;-62
2022/12/09 00:57:01;;;;;;;3.55;2.78;;;22.20;42.70;;;20.45;47.70;94781.16;4969217;28;20043;-61
2022/12/09 00:59:27;;;;;;;3.42;2.53;;;22.20;42.90;;;20.46;47.96;94793.44;4968525;28;20046;-61
2022/12/09 01:01:52;;;;;;;5.43;2.80;;;22.20;42.80;;;20.44;47.85;94793.72;4970486;28;20023;-61
2022/12/09 01:04:18;;;;;;;3.05;2.22;;;22.20;43.00;;;20.46;48.22;94788.09;4969391;28;20062;-62
2022/12/09 01:06:44;;;;;;;3.58;2.60;;;22.20;42.90;;;20.44;47.71;94772.34;4970595;28;20442;-61
2022/12/09 01:09:09;;;;;;;3.83;2.47;;;22.20;42.90;;;20.45;47.82;94765.13;4968737;28;20113;-61
2022/12/09 01:11:35;;;;;;;3.42;2.50;;;22.20;42.90;;;20.46;47.62;94769.38;4977929;28;20078;-63
2022/12/09 01:14:02;;;;;;;5.57;2.65;;;22.20;42.90;;;20.45;48.26;94759.78;4952954;28;20034;-62
2022/12/09 01:16:30;;;;;;;4.63;2.33;;;22.20;42.90;;;20.46;47.37;94764.03;4979661;28;20547;-62
2022/12/09 01:18:58;;;;;;;4.43;2.28;;;22.20;42.90;;;20.45;47.86;94754.44;4988115;28;20038;-62
2022/12/09 01:21:27;;;;;;;4.65;2.63;;;22.20;42.90;;;20.44;47.94;94775.00;4988175;28;20461;-61
2022/12/09 01:23:53;;;;;;;3.05;2.50;;;22.20;42.90;;;20.45;47.38;94781.94;4989693;28;20050;-61
2022/12/09 01:26:19;;;;;;;4.18;2.75;;;22.20;43.00;;;20.42;47.73;94768.38;4988714;28;20094;-62
2022/12/09 01:28:45;;;;;;;2.47;2.20;;;22.20;43.00;;;20.44;47.97;94774.22;4988363;28;20109;-62
2022/12/09 01:31:16;;;;;;;5.78;2.30;;;22.20;42.90;;;20.43;47.54;94775.31;4955700;28;20064;-61
2022/12/09 01:33:42;;;;;;;3.28;2.50;;;22.20;43.00;;;20.45;47.30;94770.47;4988633;28;20038;-62
2022/12/09 01:36:17;;;;;;;3.78;2.65;;;22.20;42.90;;;20.44;47.70;94768.88;4988208;28;20128;-62
2022/12/09 01:38:43;;;;;;;2.88;2.30;;;22.20;42.90;;;20.44;48.43;94750.19;4969301;28;20061;-61
2022/12/09 01:41:09;;;;;;;3.70;2.40;;;22.20;42.90;;;20.44;47.35;94750.97;4989085;28;20034;-61
2022/12/09 01:43:36;;;;;;;3.33;2.10;;;22.20;42.90;;;20.44;48.06;94761.66;4939563;28;20038;-61
2022/12/09 01:46:02;;;;;;;3.55;2.40;;;22.20;42.90;;;20.45;47.29;94759.78;4972312;28;20038;-62
2022/12/09 01:48:34;;;;;;;3.40;2.78;;;22.20;42.90;;;20.43;47.91;94745.91;4972282;28;20038;-62
2022/12/09 01:51:12;;;;;;;3.00;2.50;;;22.20;42.90;;;20.42;48.47;94750.47;4956227;28;20541;-61
2022/12/09 01:53:40;;;;;;;2.55;2.20;;;22.20;42.90;;;20.43;48.18;94749.38;4952422;28;20031;-61
2022/12/09 01:56:09;;;;;;;3.35;2.40;;;22.20;42.90;;;20.42;47.23;94736.31;4955050;28;20589;-61
2022/12/09 01:58:35;;;;;;;4.07;2.60;;;22.20;42.90;;;20.44;47.33;94734.16;4940566;28;20038;-62
2022/12/09 02:01:01;;;;;;;3.10;2.30;;;22.20;42.90;;;20.42;47.47;94730.97;4939870;28;20367;-62
2022/12/09 02:03:26;;;;;;;3.47;2.38;;;22.20;42.90;;;20.44;48.39;94750.19;4973951;28;20030;-62
2022/12/09 02:05:52;;;;;;;3.28;2.35;;;22.20;42.90;;;20.42;48.20;94747.00;4975260;28;20030;-62
2022/12/09 02:08:18;;;;;;;2.97;2.30;;;22.20;42.90;;;20.43;47.35;94749.38;4975565;28;20116;-62
2022/12/09 02:11:25;;;;;;;3.60;2.50;;;22.10;42.80;;;20.45;47.11;94714.38;4966632;28;20031;-62
2022/12/09 02:14:09;;;;;;;3.05;2.30;;;22.10;42.90;;;20.43;47.86;94716.53;4960054;28;20027;-62
2022/12/09 02:17:13;;;;;;;3.85;2.53;;;22.10;42.90;;;20.43;47.18;94721.88;4959735;28;20030;-62
2022/12/09 02:20:09;;;;;;;2.65;2.08;;;22.20;43.00;;;20.39;47.49;94712.81;4958063;28;20043;-62
2022/12/09 02:22:42;;;;;;;3.33;2.45;;;22.10;43.00;;;20.40;47.26;94714.41;4977845;28;20424;-62
2022/12/09 02:25:31;;;;;;;2.95;2.00;;;22.10;42.90;;;20.39;47.67;94704.81;4959405;28;20512;-61
2022/12/09 02:28:30;;;;;;;3.53;2.45;;;22.10;43.00;;;20.40;48.45;94698.38;4959124;28;20058;-62
2022/12/09 02:31:21;;;;;;;2.90;2.30;;;22.10;42.90;;;20.32;48.21;94699.00;4974476;28;20038;-61
2022/12/09 02:34:12;;;;;;;4.28;2.40;;;22.10;42.90;;;20.36;48.05;94695.47;4974678;28;20140;-61
2022/12/09 02:37:10;;;;;;;2.65;2.15;;;22.20;43.00;;;20.38;48.13;94684.53;4975815;28;20052;-61
2022/12/09 02:39:50;;;;;;;3.72;2.42;;;22.10;42.90;;;20.38;48.23;94700.53;4976076;28;20042;-62
2022/12/09 02:42:17;;;;;;;3.08;2.65;;;22.10;43.00;;;20.37;48.13;94706.97;4950934;28;20086;-62
2022/12/09 02:44:43;;;;;;;3.33;2.45;;;22.10;43.00;;;20.37;48.13;94696.28;4957290;28;20022;-61
2022/12/09 02:47:09;;;;;;;3.10;2.30;;;22.10;43.00;;;20.37;47.75;94693.63;4945638;28;20042;-61
2022/12/09 02:49:35;;;;;;;3.47;2.22;;;22.10;43.10;;;20.37;47.87;94709.63;4926732;28;20117;-62
2022/12/09 02:52:02;;;;;;;4.53;2.70;;;22.10;43.10;;;20.35;47.34;94699.22;4974032;28;20073;-61
2022/12/09 02:54:28;;;;;;;3.30;2.53;;;22.10;43.10;;;20.37;47.67;94699.75;4974301;28;20038;-61
2022/12/09 02:57:01;;;;;;;3.33;2.40;;;22.10;43.00;;;20.37;48.03;94696.28;4957643;28;20042;-61
2022/12/09 02:59:26;;;;;;;4.63;2.53;;;22.10;43.10;;;20.38;48.04;94697.88;4957301;28;20133;-62
2022/12/09 03:02:16;;;;;;;3.95;2.22;;;22.10;43.10;;;20.38;48.14;94692.53;4973692;28;20589;-62
2022/12/09 03:04:46;;;;;;;2.75;2.22;;;22.10;42.90;;;20.36;48.15;94694.66;4973739;28;20106;-62
2022/12/09 03:07:25;;;;;;;3.40;2.70;;;22.10;43.10;;;20.40;47.63;94695.72;4956534;28;20057;-62
2022/12/09 03:10:01;;;;;;;3.92;2.70;;;22.10;43.10;;;20.40;48.57;94685.84;4977510;28;20094;-62
2022/12/09 03:12:27;;;;;;;2.70;2.15;;;22.10;43.20;;;20.45;47.53;94677.00;4954055;28;20563;-62
2022/12/09 03:14:53;;;;;;;3.58;2.10;;;22.10;43.10;;;20.49;47.15;94667.31;4957583;28;20038;-62
2022/12/09 03:17:30;;;;;;;3.25;2.35;;;22.10;43.10;;;20.54;47.38;94661.91;4957226;28;20038;-62
2022/12/09 03:20:11;;;;;;;2.95;2.33;;;22.10;43.10;;;20.61;48.17;94664.25;4973480;28;20038;-62
2022/12/09 03:22:37;;;;;;;3.08;2.20;;;22.20;43.10;;;20.64;47.26;94669.81;4989620;28;20474;-62
2022/12/09 03:25:22;;;;;;;4.25;2.30;;;22.20;43.00;;;20.69;47.82;94650.25;4973487;28;20128;-62
2022/12/09 03:27:56;;;;;;;3.95;2.22;;;22.20;42.90;;;20.70;47.32;94641.94;5005104;28;20038;-62
2022/12/09 03:30:22;;;;;;;2.60;2.10;;;22.20;42.90;;;20.73;47.38;94652.03;4957773;28;20523;-62
2022/12/09 03:32:48;;;;;;;3.05;2.10;;;22.30;42.90;;;20.75;47.05;94647.19;4973184;28;20121;-62
2022/12/09 03:35:42;;;;;;;2.72;2.05;;;22.30;42.80;;;20.74;47.37;94637.59;4956895;28;20125;-62
2022/12/09 03:38:10;;;;;;;2.83;2.13;;;22.30;42.80;;;20.79;47.35;94634.84;4975828;28;20027;-61
2022/12/09 03:40:36;;;;;;;2.58;2.05;;;22.30;42.80;;;20.80;47.31;94630.31;4954331;28;20046;-62
2022/12/09 03:43:11;;;;;;;2.45;2.00;;;22.30;42.70;;;20.81;47.51;94637.22;4950930;28;20053;-62
2022/12/09 03:45:37;;;;;;;3.67;2.30;;;22.40;42.70;;;20.79;46.99;94645.53;4957681;28;20445;-62
2022/12/09 03:48:03;;;;;;;3.40;2.40;;;22.30;42.70;;;20.81;46.75;94639.91;4972838;28;20101;-62
2022/12/09 03:50:34;;;;;;;4.38;2.08;;;22.40;42.70;;;20.82;47.43;94632.69;4990230;28;20149;-62
2022/12/09 03:53:11;;;;;;;3.45;1.95;;;22.40;42.70;;;20.79;47.06;94624.16;4989108;28;20038;-61
2022/12/09 03:55:47;;;;;;;3.60;2.25;;;22.30;42.80;;;20.78;46.91;94611.88;4988625;28;20022;-62
2022/12/09 03:58:12;;;;;;;3.35;2.33;;;22.30;42.80;;;20.78;47.08;94622.56;4965833;28;20109;-62
2022/12/09 04:00:38;;;;;;;3.17;2.15;;;22.40;42.80;;;20.75;47.11;94617.00;4968940;28;20482;-62
2022/12/09 04:03:05;;;;;;;2.80;2.17;;;22.30;42.80;;;20.76;47.23;94623.94;4969723;28;20145;-63
2022/12/09 04:05:31;;;;;;;2.97;2.22;;;22.30;42.90;;;20.75;47.00;94628.50;4971905;28;20038;-62
2022/12/09 04:07:57;;;;;;;2.72;2.10;;;22.40;42.90;;;20.75;47.79;94619.69;4982466;28;20344;-62
2022/12/09 04:10:22;;;;;;;3.17;2.35;;;22.40;42.90;;;20.74;47.63;94618.91;4972211;28;20045;-63
2022/12/09 04:12:48;;;;;;;4.28;2.50;;;22.40;42.80;;;20.72;47.53;94621.06;4970422;28;20061;-62
2022/12/09 04:15:14;;;;;;;3.70;2.35;;;22.40;42.90;;;20.72;47.83;94613.03;4970525;28;20077;-63
2022/12/09 04:17:40;;;;;;;5.80;2.13;;;22.30;42.90;;;20.71;47.81;94610.66;4970318;28;20123;-64
2022/12/09 04:20:06;;;;;;;3.78;2.25;;;22.40;43.30;;;20.71;48.21;94622.16;4969004;28;20038;-62
2022/12/09 04:22:32;;;;;;;4.03;2.17;;;22.40;43.20;;;20.70;48.25;94631.25;4967866;28;20058;-62
2022/12/09 04:24:57;;;;;;;10.05;2.28;;;22.40;43.30;;;20.68;48.82;94632.63;4983312;28;20145;-62
2022/12/09 04:27:23;;;;;;;3.45;2.38;;;22.40;43.50;;;20.70;48.43;94635.78;4988145;28;20039;-62
2022/12/09 04:29:49;;;;;;;5.97;2.20;;;22.30;43.60;;;20.67;48.23;94621.13;4987856;28;20049;-61
2022/12/09 04:32:15;;;;;;;4.47;2.30;;;22.40;43.80;;;20.71;49.05;94621.34;4956378;28;20070;-62
2022/12/09 04:34:40;;;;;;;2.70;2.10;;;22.40;44.30;;;20.71;49.60;94614.13;4988432;28;20430;-63
2022/12/09 04:37:06;;;;;;;3.35;2.10;;;22.50;44.40;;;20.74;50.19;94607.41;4982362;28;20915;-63
2022/12/09 04:39:32;;;;;;;2.45;1.92;;;22.50;45.00;;;20.73;49.50;94603.94;4968681;28;20713;-63
2022/12/09 04:41:58;;;;;;;4.18;2.10;;;22.50;44.90;;;20.75;50.00;94609.78;4955081;28;20062;-62
2022/12/09 04:44:23;;;;;;;2.25;1.75;;;22.40;44.70;;;20.74;49.81;94605.53;4994867;28;20069;-62
2022/12/09 04:46:49;;;;;;;2.60;2.00;;;22.40;45.00;;;20.73;50.24;94598.59;4972918;28;20065;-62
2022/12/09 04:49:15;;;;;;;3.40;2.13;;;22.50;44.80;;;20.76;50.14;94600.69;4941357;28;20053;-62
2022/12/09 04:51:40;;;;;;;3.35;2.25;;;22.50;44.60;;;20.77;50.55;94599.59;4967614;28;20705;-63
2022/12/09 04:54:11;;;;;;;2.60;1.95;;;22.50;45.00;;;20.77;50.13;94583.56;4954272;28;20055;-62
2022/12/09 04:56:36;;;;;;;5.63;2.20;;;22.50;44.70;;;20.77;50.41;94578.22;4965225;28;20426;-62
2022/12/09 04:59:03;;;;;;;5.88;2.30;;;22.50;45.20;;;20.78;50.64;94577.16;4965482;28;20037;-62
2022/12/09 05:01:28;;;;;;;8.18;2.20;;;22.50;44.80;;;20.80;50.32;94582.19;4965060;28;20047;-62
2022/12/09 05:03:54;;;;;;;3.38;2.15;;;22.50;44.90;;;20.79;50.28;94581.41;4965277;28;20070;-63
2022/12/09 05:06:20;;;;;;;14.00;3.25;;;22.50;45.00;;;20.82;51.00;94579.22;4965518;28;20079;-63
2022/12/09 05:08:46;;;;;;;17.88;4.57;;;22.50;47.10;;;20.83;54.00;94589.66;4948489;28;20078;-62
2022/12/09 05:11:15;;;;;;;23.90;5.10;;;22.50;48.00;;;20.85;56.25;94587.50;4970743;28;20118;-63
2022/12/09 05:13:41;;;;;;;17.40;5.15;;;22.60;50.40;;;20.88;57.45;94578.09;4968271;28;20026;-62
2022/12/09 05:16:09;;;;;;;15.68;4.68;;;22.60;51.80;;;20.91;58.47;94578.31;4976005;28;20130;-63
2022/12/09 05:18:35;;;;;;;24.05;4.97;;;22.60;52.00;;;20.96;59.19;94572.06;4971924;28;20425;-63
2022/12/09 05:21:10;;;;;;;43.15;9.43;;;22.60;51.10;;;21.02;78.17;94568.22;5007705;23;20050;-45
2022/12/09 05:23:36;;;;;;;38.40;6.65;;;22.80;67.50;;;21.09;69.18;94566.00;4997907;28;20088;-42
2022/12/09 05:26:06;;;;;;;24.77;5.20;;;22.80;61.20;;;21.13;68.55;94558.19;4997144;28;20028;-46
2022/12/09 05:28:32;;;;;;;19.52;4.57;;;22.80;57.70;;;21.12;66.05;94552.03;4988656;28;20551;-46
2022/12/09 05:31:03;;;;;;;20.73;3.95;;;22.80;56.50;;;21.13;64.20;94553.63;4990635;28;20140;-46
2022/12/09 05:33:29;;;;;;;17.77;4.70;;;22.80;54.30;;;21.12;63.41;94551.25;4990772;28;20045;-46
2022/12/09 05:35:55;;;;;;;16.85;4.10;;;22.80;53.70;;;21.12;63.19;94557.41;4991283;28;20034;-47
2022/12/09 05:38:21;;;;;;;22.67;4.78;;;22.80;53.40;;;21.13;62.25;94553.63;4991301;28;20038;-47
2022/12/09 05:40:46;;;;;;;15.35;4.05;;;22.80;53.00;;;21.13;62.55;94552.84;4991285;28;20033;-47
2022/12/09 05:43:12;;;;;;;11.82;4.10;;;22.80;52.00;;;21.09;62.05;94545.41;5004296;28;20500;-48
2022/12/09 05:45:38;;;;;;;13.77;3.80;;;22.80;52.00;;;21.10;62.25;94548.88;4992567;28;20166;-45
2022/12/09 05:48:04;;;;;;;11.88;3.45;;;22.80;53.20;;;21.07;61.70;94536.09;4992487;28;20125;-45
2022/12/09 05:50:29;;;;;;;11.13;4.30;;;22.80;51.80;;;21.07;61.00;94534.22;4991636;28;20046;-46
2022/12/09 05:52:55;;;;;;;14.05;3.72;;;22.80;51.60;;;21.07;60.92;94538.78;4992268;28;20137;-47
2022/12/09 05:55:21;;;;;;;7.80;3.42;;;22.80;52.10;;;21.06;61.01;94542.53;4991404;28;20065;-46
2022/12/09 05:57:47;;;;;;;13.13;3.75;;;22.80;52.60;;;21.06;60.46;94542.53;4992232;28;20117;-45
2022/12/09 06:00:13;;;;;;;9.95;3.17;;;22.80;51.60;;;21.03;60.41;94537.75;4991519;28;20114;-47
2022/12/09 06:02:39;;;;;;;10.13;3.75;;;22.70;52.80;;;21.03;61.08;94538.53;4992204;28;20041;-47
2022/12/09 06:05:05;;;;;;;12.63;3.42;;;22.70;52.40;;;21.02;60.49;94538.84;4995469;28;20039;-47
2022/12/09 06:07:31;;;;;;;11.93;3.40;;;22.70;52.20;;;21.01;60.18;94535.38;4996942;28;20676;-46
2022/12/09 06:09:57;;;;;;;16.67;4.15;;;22.70;50.40;;;21.00;59.07;94544.47;4973104;28;20048;-47
2022/12/09 06:12:22;;;;;;;9.20;3.70;;;22.70;49.70;;;20.99;58.22;94542.88;4956738;28;20216;-47
2022/12/09 06:14:48;;;;;;;8.80;4.10;;;22.70;49.10;;;20.97;57.96;94550.41;4976896;28;20049;-45
2022/12/09 06:17:14;;;;;;;10.55;4.25;;;22.70;48.70;;;20.96;57.73;94540.00;4992391;28;20133;-46
2022/12/09 06:19:40;;;;;;;6.68;3.55;;;22.70;48.80;;;20.95;56.84;94541.09;5009638;28;20034;-46
2022/12/09 06:22:05;;;;;;;8.32;3.70;;;22.70;48.80;;;20.92;57.02;94536.34;4981005;28;20389;-46
2022/12/09 06:24:31;;;;;;;9.90;4.15;;;22.60;48.90;;;20.90;56.43;94528.59;4971261;28;20047;-50
2022/12/09 06:26:57;;;;;;;8.18;3.42;;;22.70;49.00;;;20.90;55.98;94530.50;4970604;28;20117;-46
2022/12/09 06:29:23;;;;;;;9.82;3.38;;;22.70;48.20;;;20.89;55.49;94520.88;4979874;28;20046;-46
2022/12/09 06:31:49;;;;;;;8.43;3.45;;;22.60;48.00;;;20.87;55.46;94523.06;4973648;28;20026;-47
2022/12/09 06:34:14;;;;;;;7.80;3.30;;;22.60;48.00;;;20.83;54.91;94514.84;4987040;28;20850;-46
2022/12/09 06:36:40;;;;;;;6.30;3.42;;;22.60;47.60;;;20.84;54.28;94524.44;4999772;28;20465;-47
2022/12/09 06:39:06;;;;;;;8.73;3.47;;;22.60;47.20;;;20.83;54.20;94525.53;5000582;28;20563;-48
2022/12/09 06:41:34;;;;;;;6.80;3.67;;;22.60;46.80;;;20.82;53.89;94507.91;4996886;28;20066;-46
2022/12/09 06:44:00;;;;;;;5.75;3.42;;;22.60;47.00;;;20.80;53.91;94508.16;5003491;28;20084;-47
2022/12/09 06:46:26;;;;;;;7.68;3.10;;;22.60;46.90;;;20.79;53.83;94511.94;5009762;28;20351;-47
2022/12/09 06:48:53;;;;;;;6.07;3.70;;;22.60;46.60;;;20.78;53.93;94513.00;5010438;28;20570;-46
2022/12/09 06:51:19;;;;;;;7.47;3.45;;;22.50;46.40;;;20.77;53.31;94507.97;5008954;28;20140;-44
2022/12/09 06:53:44;;;;;;;8.77;3.38;;;22.50;46.50;;;20.76;53.06;94507.16;4999769;28;20491;-48
2022/12/09 06:56:11;;;;;;;7.55;3.05;;;22.50;46.20;;;20.76;52.66;94507.16;4998049;28;20046;-46
2022/12/09 06:58:37;;;;;;;8.52;3.50;;;22.60;46.40;;;20.74;53.31;94509.34;4990153;28;20034;-47
2022/12/09 07:01:05;;;;;;;4.97;3.42;;;22.50;46.20;;;20.73;52.80;94507.75;4990342;28;20042;-47
2022/12/09 07:03:30;;;;;;;7.20;3.28;;;22.50;46.40;;;20.72;52.76;94500.81;4989554;28;20101;-49
2022/12/09 07:05:56;;;;;;;7.60;3.38;;;22.50;46.20;;;20.71;53.25;94501.91;4992024;28;20041;-47
2022/12/09 07:08:22;;;;;;;4.15;2.80;;;22.60;46.20;;;20.70;53.07;94497.66;4998054;28;20137;-48
2022/12/09 07:10:47;;;;;;;4.85;2.80;;;22.50;46.20;;;20.70;52.94;94499.53;4998098;28;20040;-47
2022/12/09 07:13:13;;;;;;;6.63;3.40;;;22.50;46.10;;;20.70;53.00;94492.31;5004634;28;20134;-46
2022/12/09 07:15:39;;;;;;;5.28;2.95;;;22.50;46.20;;;20.69;52.75;94485.38;5009543;28;20077;-48
2022/12/09 07:18:06;;;;;;;4.85;3.08;;;22.50;46.00;;;20.68;53.11;94483.00;5009678;28;20130;-46
2022/12/09 07:20:32;;;;;;;6.22;2.97;;;22.50;46.20;;;20.68;52.70;94489.13;5008259;28;20046;-46
2022/12/09 07:22:58;;;;;;;4.85;3.08;;;22.40;46.00;;;20.68;52.83;94486.47;5004700;28;20418;-44
2022/12/09 07:25:23;;;;;;;8.35;3.70;;;22.50;46.00;;;20.67;52.48;94498.25;5008333;28;20054;-44
2022/12/09 07:27:49;;;;;;;7.30;3.22;;;22.40;45.90;;;20.67;53.05;94503.59;5009822;28;20037;-47
2022/12/09 07:30:17;;;;;;;4.93;3.03;;;22.40;45.80;;;20.67;52.43;94510.81;4999353;28;20114;-47
2022/12/09 07:32:43;;;;;;;4.00;3.00;;;22.30;45.70;;;20.65;52.62;94516.44;4997917;28;20061;-47
2022/12/09 07:35:09;;;;;;;4.90;3.05;;;22.40;45.80;;;20.67;52.92;94513.47;4987541;28;20039;-46
2022/12/09 07:37:35;;;;;;;5.40;3.42;;;22.30;46.00;;;20.67;52.55;94505.47;4988527;28;20117;-48
2022/12/09 07:40:00;;;;;;;6.55;3.78;;;22.40;46.00;;;20.65;52.83;94519.13;4992731;28;20411;-47
2022/12/09 07:42:26;;;;;;;4.45;2.95;;;22.40;45.90;;;20.65;52.40;94519.13;4999724;28;20498;-46
2022/12/09 07:44:52;;;;;;;7.25;3.42;;;22.40;45.60;;;20.65;52.59;94507.63;5007765;28;20820;-46
2022/12/09 07:47:18;;;;;;;6.80;3.47;;;22.40;45.70;;;20.64;52.38;94506.84;4995858;28;20488;-46
2022/12/09 07:49:43;;;;;;;7.35;3.60;;;22.40;45.50;;;20.64;52.17;94495.34;5006475;28;20133;-44
2022/12/09 07:52:11;;;;;;;4.70;3.45;;;22.40;45.60;;;20.63;51.63;94497.25;5000450;28;20452;-45
2022/12/09 07:54:36;;;;;;;6.18;3.67;;;22.40;45.50;;;20.62;51.65;94484.19;5001789;28;20104;-45
2022/12/09 07:57:02;;;;;;;4.90;2.80;;;22.40;45.40;;;20.63;51.80;94488.44;4995869;28;20105;-48
2022/12/09 07:59:28;;;;;;;9.00;3.58;;;22.40;45.50;;;20.62;52.21;94484.97;4986364;28;20041;-46
2022/12/09 08:01:54;;;;;;;5.70;3.30;;;22.40;45.60;;;20.62;51.89;94474.28;4989041;28;20130;-46
2022/12/09 08:04:19;;;;;;;5.30;3.00;;;22.40;45.40;;;20.63;51.94;94480.41;4987629;28;20093;-44
2022/12/09 08:06:45;;;;;;;5.82;3.35;;;22.40;45.60;;;20.61;51.68;94475.38;5003046;28;20080;-44
2022/12/09 08:09:11;;;;;;;6.10;3.53;;;22.40;45.40;;;20.60;51.32;94471.09;4974819;28;20101;-44
2022/12/09 08:11:37;;;;;;;5.80;3.15;;;22.40;45.30;;;20.61;51.11;94471.91;4989569;28;21148;-44
2022/12/09 08:14:05;;;;;;;5.82;3.35;;;22.30;45.10;;;20.60;51.06;94476.44;4964311;28;20058;-44
2022/12/09 08:16:31;;;;;;;5.45;3.35;;;22.30;45.20;;;20.60;52.03;94473.78;4977204;28;20049;-45
2022/12/09 08:18:56;;;;;;;6.15;3.13;;;22.30;45.20;;;20.58;51.33;94473.25;4986213;28;20041;-46
2022/12/09 08:21:26;;;;;;;6.55;3.00;;;22.30;45.10;;;20.59;51.45;94469.50;4990568;28;20034;-47
2022/12/09 08:23:52;;;;;;;5.65;2.90;;;22.30;45.10;;;20.59;51.64;94474.03;5000982;28;20053;-45
2022/12/09 08:26:20;;;;;;;4.35;3.08;;;22.30;45.00;;;20.60;51.38;94465.78;4990193;28;20030;-44
2022/12/09 08:28:45;;;;;;;5.47;2.97;;;22.20;45.10;;;20.59;51.10;94477.50;4990762;28;20120;-45
2022/12/09 08:31:14;;;;;;;4.95;3.30;;;22.30;45.10;;;20.59;51.52;94466.81;5007439;28;20038;-45
2022/12/09 08:33:40;;;;;;;5.13;3.30;;;22.20;45.20;;;20.58;51.46;94465.25;4998966;28;20075;-45
2022/12/09 08:36:16;;;;;;;5.75;3.38;;;22.20;45.00;;;20.58;50.98;94473.25;4969700;28;20108;-46
2022/12/09 08:38:42;;;;;;;4.00;3.00;;;22.20;45.10;;;20.57;51.27;94468.19;4969754;28;20038;-46
2022/12/09 08:41:13;;;;;;;4.38;2.88;;;22.20;45.10;;;20.58;50.90;94475.94;4988786;28;20544;-45
2022/12/09 08:43:39;;;;;;;6.40;3.20;;;22.20;45.10;;;20.57;51.05;94470.88;5006671;28;20084;-45
2022/12/09 08:46:05;;;;;;;5.50;3.28;;;22.20;45.20;;;20.56;51.73;94464.75;5008100;28;20049;-45
2022/12/09 08:48:30;;;;;;;5.20;2.97;;;22.30;45.00;;;20.58;51.41;94470.59;5008417;28;20061;-46
2022/12/09 08:50:56;;;;;;;4.07;3.45;;;22.20;45.10;;;20.57;51.08;94469.00;5007744;28;20141;-47
2022/12/09 08:53:22;;;;;;;3.92;3.00;;;22.20;45.10;;;20.58;50.59;94462.56;4989687;28;20030;-45
2022/12/09 08:55:48;;;;;;;5.53;2.95;;;22.20;45.00;;;20.57;51.20;94454.84;4996593;28;20041;-45
2022/12/09 08:58:14;;;;;;;4.47;3.17;;;22.20;45.00;;;20.56;51.04;94462.06;4999643;28;20495;-45
2022/12/09 09:00:39;;;;;;;6.47;3.45;;;22.20;45.00;;;20.56;51.45;94458.59;5007012;28;20551;-44
2022/12/09 09:03:05;;;;;;;4.30;3.03;;;22.30;45.00;;;20.55;51.29;94455.13;5008385;28;20415;-45
2022/12/09 09:05:31;;;;;;;4.47;3.25;;;22.30;45.00;;;20.56;50.62;94442.56;4992246;28;20031;-45
2022/12/09 09:07:57;;;;;;;5.38;3.05;;;22.20;45.00;;;20.56;51.18;94448.72;4991815;28;20073;-45
2022/12/09 09:10:22;;;;;;;5.70;3.33;;;22.20;44.90;;;20.56;51.47;94450.59;4993621;28;20153;-44
2022/12/09 09:12:48;;;;;;;5.32;3.67;;;22.20;44.90;;;20.56;50.80;94445.25;4988448;28;20555;-45
2022/12/09 09:15:14;;;;;;;4.68;3.47;;;22.20;44.80;;;20.55;50.96;94447.13;4992685;28;20540;-44
2022/12/09 09:17:39;;;;;;;4.75;3.30;;;22.20;44.90;;;20.56;50.78;94454.06;4984763;28;20528;-45
2022/12/09 09:20:06;;;;;;;4.20;3.38;;;22.20;44.90;;;20.56;50.48;94448.72;4988499;28;20073;-44
2022/12/09 09:22:33;;;;;;;5.32;2.92;;;22.20;45.00;;;20.55;50.99;94452.47;4985123;28;20050;-46
2022/12/09 09:24:59;;;;;;;4.32;3.05;;;22.20;44.80;;;20.56;51.01;94459.41;4990265;28;20634;-46
2022/12/09 09:27:25;;;;;;;3.83;3.20;;;22.20;45.00;;;20.56;50.43;94454.06;4995122;28;20383;-45
2022/12/09 09:29:50;;;;;;;11.02;3.70;;;22.20;44.80;;;20.56;50.64;94456.72;4991683;28;20043;-45
2022/12/09 09:32:16;;;;;;;6.75;3.60;;;22.20;44.70;;;20.56;50.47;94463.94;4997254;28;20118;-45
2022/12/09 09:34:43;;;;;;;5.07;3.05;;;22.20;44.80;;;20.56;50.67;94470.09;4999623;28;20530;-45
2022/12/09 09:37:08;;;;;;;4.38;3.10;;;22.20;44.70;;;20.56;50.41;94469.28;4983445;28;20034;-46
2022/12/09 09:39:34;;;;;;;5.15;3.55;;;22.20;44.70;;;20.55;50.91;94457.03;4971185;28;20193;-46
2022/12/09 09:42:03;;;;;;;5.50;3.40;;;22.20;44.70;;;20.56;50.13;94448.72;4953869;28;20131;-45
2022/12/09 09:44:35;;;;;;;4.30;3.25;;;22.20;44.80;;;20.56;50.58;94446.03;4939906;28;20662;-45
2022/12/09 09:47:04;;;;;;;8.13;3.80;;;22.20;44.70;;;20.55;50.41;94432.97;4971141;28;20135;-46
2022/12/09 09:49:33;;;;;;;4.22;3.22;;;22.20;44.70;;;20.55;50.61;94435.66;4950388;28;20186;-44
2022/12/09 09:51:59;;;;;;;4.47;3.13;;;22.20;44.60;;;20.53;50.42;94438.63;4962387;28;20035;-45
2022/12/09 09:54:25;;;;;;;8.93;3.10;;;22.10;44.70;;;20.56;50.66;94426.56;4953247;28;20092;-45
2022/12/09 09:57:09;;;;;;;3.83;3.00;;;22.10;44.80;;;20.59;50.84;94423.28;4980906;28;20238;-46
2022/12/09 09:59:41;;;;;;;3.97;3.08;;;22.20;44.80;;;20.62;50.77;94426.19;4959617;28;20138;-46
2022/12/09 10:02:09;;;;;;;5.20;2.83;;;22.20;44.80;;;20.65;50.68;94422.94;4978974;28;20057;-45
2022/12/09 10:04:50;;;;;;;4.65;2.80;;;22.20;44.80;;;20.68;50.59;94411.66;5004871;28;20045;-44
2022/12/09 10:07:22;;;;;;;4.07;3.00;;;22.30;44.70;;;20.70;50.35;94401.47;5001346;28;20077;-47
2022/12/09 10:10:13;;;;;;;5.50;3.63;;;22.30;44.60;;;20.75;49.98;94398.69;4999376;28;20464;-45
2022/12/09 10:13:35;;;;;;;4.93;2.95;;;22.30;44.60;;;20.78;50.41;94403.47;4981752;28;20096;-46
2022/12/09 10:16:18;;;;;;;5.47;3.13;;;22.30;44.60;;;20.79;50.06;94402.38;4990260;28;20534;-46
2022/12/09 10:19:23;;;;;;;4.80;2.65;;;22.30;44.50;;;20.80;50.26;94409.28;4980943;28;20124;-44
2022/12/09 10:21:50;;;;;;;4.32;2.85;;;22.40;44.50;;;20.82;50.66;94416.22;4954667;28;20399;-45
2022/12/09 10:24:29;;;;;;;5.32;2.83;;;22.40;44.50;;;20.85;49.51;94396.97;4951943;28;20077;-47